Time;durP1;ratioP1;P1;durP2;ratioP2;P2;SDS_P1;SDS_P2;PMS_P1;PMS_P2;Temp;Humidity;BMP_temperature;BMP_pressure;BME280_temperature;BME280_humidity;BME280_pressure;Samples;Min_cycle;Max_cycle;Signal;HPM_P1;HPM_P2
2022/07/31 00:01:21;;;;;;;9.02;6.72;;;;;;;;;;5112810;28;20535;-85
2022/07/31 00:03:48;;;;;;;7.68;6.97;;;;;;;;;;5112475;28;20386;-80
2022/07/31 00:06:14;;;;;;;7.38;6.68;;;;;;;;;;5112824;28;20534;-80
2022/07/31 00:08:40;;;;;;;9.27;7.30;;;;;;;;;;5112718;28;20031;-81
2022/07/31 00:11:06;;;;;;;7.63;7.03;;;;;;;;;;5112580;28;20051;-82
2022/07/31 00:13:32;;;;;;;8.55;7.75;;;;;;;;;;5116240;28;20452;-83
2022/07/31 00:15:58;;;;;;;9.75;7.28;;;;;;;;;;5116446;28;20035;-79
2022/07/31 00:18:24;;;;;;;7.47;6.78;;;;;;;;;;5116776;28;20031;-86
2022/07/31 00:20:50;;;;;;;7.78;7.03;;;;;;;;;;5098174;28;20055;-85
2022/07/31 00:23:17;;;;;;;9.18;6.57;;;;;;;;;;5116733;28;20027;-81
2022/07/31 00:25:43;;;;;;;7.38;6.43;;;;;;;;;;5116548;28;20019;-84
2022/07/31 00:28:09;;;;;;;7.25;6.65;;;;;;;;;;5116352;28;20024;-81
2022/07/31 00:30:35;;;;;;;7.88;7.18;;;;;;;;;;5116356;28;20462;-83
2022/07/31 00:33:01;;;;;;;7.40;6.47;;;;;;;;;;5116283;28;20031;-84
2022/07/31 00:35:27;;;;;;;7.53;6.90;;;;;;;;;;5116256;28;20054;-82
2022/07/31 00:37:53;;;;;;;7.18;6.47;;;;;;;;;;5116160;28;20031;-80
2022/07/31 00:40:19;;;;;;;7.55;6.85;;;;;;;;;;5116407;28;20023;-85
2022/07/31 00:42:45;;;;;;;6.97;6.28;;;;;;;;;;5116190;28;20022;-78
2022/07/31 00:45:12;;;;;;;7.57;6.45;;;;;;;;;;5115907;28;20019;-83
2022/07/31 00:47:38;;;;;;;7.05;6.55;;;;;;;;;;5097860;28;20537;-84
2022/07/31 00:50:04;;;;;;;7.30;6.68;;;;;;;;;;5115761;28;20024;-84
2022/07/31 00:52:30;;;;;;;6.72;6.15;;;;;;;;;;5116030;28;20131;-78
2022/07/31 00:54:56;;;;;;;6.75;6.15;;;;;;;;;;5115935;28;20566;-79
2022/07/31 00:57:22;;;;;;;6.70;6.18;;;;;;;;;;5115766;28;20034;-80
2022/07/31 00:59:49;;;;;;;6.97;6.38;;;;;;;;;;5115986;28;20050;-78
2022/07/31 01:02:15;;;;;;;7.63;6.85;;;;;;;;;;5115566;28;20027;-82
2022/07/31 01:04:41;;;;;;;7.18;6.47;;;;;;;;;;5097599;28;20054;-80
2022/07/31 01:07:07;;;;;;;7.47;6.85;;;;;;;;;;5115564;28;20058;-86
2022/07/31 01:09:33;;;;;;;7.35;6.75;;;;;;;;;;5115751;28;20091;-82
2022/07/31 01:12:09;;;;;;;7.47;6.82;;;;;;;;;;5115700;28;20016;-82
2022/07/31 01:14:38;;;;;;;6.95;5.88;;;;;;;;;;5115670;28;20028;-80
2022/07/31 01:17:06;;;;;;;7.40;6.28;;;;;;;;;;5115377;28;20024;-82
2022/07/31 01:19:42;;;;;;;7.38;6.65;;;;;;;;;;5115506;28;20099;-85
2022/07/31 01:22:17;;;;;;;7.95;7.15;;;;;;;;;;5115369;28;20028;-82
2022/07/31 01:25:02;;;;;;;8.75;7.88;;;;;;;;;;5114228;28;20046;-81
2022/07/31 01:27:39;;;;;;;8.15;7.07;;;;;;;;;;5115370;28;20016;-81
2022/07/31 01:30:05;;;;;;;11.25;8.00;;;;;;;;;;5115297;28;20486;-81
2022/07/31 01:32:35;;;;;;;14.25;8.40;;;;;;;;;;5115222;28;20019;-81
2022/07/31 01:35:04;;;;;;;7.78;7.07;;;;;;;;;;5115182;28;20367;-82
2022/07/31 01:37:32;;;;;;;10.25;8.38;;;;;;;;;;5115081;28;20027;-84
2022/07/31 01:40:08;;;;;;;9.07;8.25;;;;;;;;;;5115312;28;20103;-80
2022/07/31 01:42:36;;;;;;;8.27;7.47;;;;;;;;;;5115036;28;20034;-79
2022/07/31 01:45:03;;;;;;;8.57;7.80;;;;;;;;;;5115008;28;20028;-83
2022/07/31 01:47:30;;;;;;;8.00;7.20;;;;;;;;;;5114879;28;20016;-84
2022/07/31 01:49:57;;;;;;;8.05;7.30;;;;;;;;;;5096759;28;20024;-81
2022/07/31 01:52:25;;;;;;;9.20;7.25;;;;;;;;;;5114809;28;20034;-80
2022/07/31 01:54:52;;;;;;;7.88;7.07;;;;;;;;;;5114956;28;20023;-84
2022/07/31 01:57:19;;;;;;;6.93;6.22;;;;;;;;;;5114649;28;20031;-85
2022/07/31 01:59:46;;;;;;;9.30;7.38;;;;;;;;;;5096564;28;20490;-84
2022/07/31 02:02:13;;;;;;;7.13;6.53;;;;;;;;;;5096345;28;20031;-84
2022/07/31 02:04:39;;;;;;;6.80;6.13;;;;;;;;;;5114799;28;20458;-81
2022/07/31 02:07:07;;;;;;;6.47;5.88;;;;;;;;;;5114539;28;20024;-80
2022/07/31 02:09:34;;;;;;;6.55;5.95;;;;;;;;;;5114545;28;20012;-81
2022/07/31 02:12:01;;;;;;;6.07;5.55;;;;;;;;;;5114449;28;20455;-80
2022/07/31 02:14:28;;;;;;;6.20;5.70;;;;;;;;;;5114227;28;20028;-83
2022/07/31 02:16:54;;;;;;;7.47;6.18;;;;;;;;;;5114483;28;20020;-84
2022/07/31 02:19:21;;;;;;;6.05;5.57;;;;;;;;;;5096091;28;20027;-81
2022/07/31 02:21:48;;;;;;;6.80;6.15;;;;;;;;;;5114449;28;20059;-81
2022/07/31 02:24:15;;;;;;;6.95;6.32;;;;;;;;;;5114154;28;20023;-81
2022/07/31 02:26:41;;;;;;;9.00;6.97;;;;;;;;;;5114330;28;20016;-81
2022/07/31 02:29:10;;;;;;;6.72;6.13;;;;;;;;;;5114113;28;20489;-80
2022/07/31 02:31:37;;;;;;;6.88;6.28;;;;;;;;;;5114230;28;20023;-81
2022/07/31 02:34:03;;;;;;;7.50;6.80;;;;;;;;;;5095972;28;20034;-79
2022/07/31 02:36:33;;;;;;;8.18;6.13;;;;;;;;;;5113572;28;20052;-85
2022/07/31 02:38:59;;;;;;;7.32;6.63;;;;;;;;;;5114061;28;20511;-81
2022/07/31 02:41:25;;;;;;;7.38;6.68;;;;;;;;;;5113814;28;20073;-82
2022/07/31 02:43:52;;;;;;;8.20;7.30;;;;;;;;;;5113875;28;20446;-81
2022/07/31 02:46:18;;;;;;;7.80;7.10;;;;;;;;;;5113712;28;20535;-81
2022/07/31 02:48:45;;;;;;;9.40;7.50;;;;;;;;;;5113869;28;20111;-79
2022/07/31 02:51:11;;;;;;;7.75;7.05;;;;;;;;;;5113715;28;20047;-83
2022/07/31 02:53:37;;;;;;;7.93;7.22;;;;;;;;;;5113685;28;20030;-80
2022/07/31 02:56:06;;;;;;;7.95;7.18;;;;;;;;;;5113658;28;20562;-82
2022/07/31 02:58:32;;;;;;;7.88;7.18;;;;;;;;;;5113518;28;20039;-81
2022/07/31 03:01:02;;;;;;;8.52;7.13;;;;;;;;;;5113634;28;20035;-82
2022/07/31 03:03:28;;;;;;;7.93;7.20;;;;;;;;;;5113334;28;20023;-83
2022/07/31 03:05:54;;;;;;;8.30;7.38;;;;;;;;;;5113559;28;20157;-85
2022/07/31 03:08:21;;;;;;;8.38;7.68;;;;;;;;;;5113243;28;20107;-85
2022/07/31 03:10:47;;;;;;;8.50;7.75;;;;;;;;;;5095179;28;20023;-82
2022/07/31 03:13:14;;;;;;;8.05;7.35;;;;;;;;;;5113306;28;20068;-83
2022/07/31 03:15:41;;;;;;;7.50;6.90;;;;;;;;;;5113333;28;20108;-83
2022/07/31 03:18:10;;;;;;;8.50;7.68;;;;;;;;;;5113274;28;20123;-84
2022/07/31 03:20:37;;;;;;;8.43;7.63;;;;;;;;;;5113157;28;20020;-83
2022/07/31 03:23:03;;;;;;;9.05;8.00;;;;;;;;;;5095073;28;20047;-80
2022/07/31 03:25:29;;;;;;;9.25;8.45;;;;;;;;;;5113018;28;20562;-86
2022/07/31 03:27:55;;;;;;;7.88;7.18;;;;;;;;;;5113216;28;20498;-85
2022/07/31 03:30:24;;;;;;;8.27;7.53;;;;;;;;;;5113075;28;20012;-82
2022/07/31 03:32:51;;;;;;;9.85;7.07;;;;;;;;;;5113350;28;20965;-86
2022/07/31 03:35:17;;;;;;;7.70;6.90;;;;;;;;;;5112655;28;20044;-84
2022/07/31 03:37:43;;;;;;;7.72;7.10;;;;;;;;;;5113053;28;20051;-83
2022/07/31 03:40:10;;;;;;;8.27;7.45;;;;;;;;;;5113090;28;20029;-86
2022/07/31 03:42:36;;;;;;;7.55;6.88;;;;;;;;;;5112949;28;20024;-86
2022/07/31 03:45:03;;;;;;;9.05;6.60;;;;;;;;;;5113061;28;20471;-85
2022/07/31 03:47:30;;;;;;;7.68;6.88;;;;;;;;;;5112284;28;20028;-85
2022/07/31 03:49:56;;;;;;;8.55;7.72;;;;;;;;;;5112963;28;20474;-84
2022/07/31 03:52:22;;;;;;;8.50;7.07;;;;;;;;;;5112726;28;20096;-81
2022/07/31 03:54:49;;;;;;;8.32;7.53;;;;;;;;;;5113143;28;20027;-86
2022/07/31 03:57:16;;;;;;;8.23;7.45;;;;;;;;;;5112665;28;20027;-86
2022/07/31 03:59:42;;;;;;;7.95;7.28;;;;;;;;;;5112883;28;20077;-82
2022/07/31 04:02:09;;;;;;;7.32;6.72;;;;;;;;;;5094748;28;20052;-87
2022/07/31 04:04:38;;;;;;;7.90;7.20;;;;;;;;;;5112668;28;20470;-85
2022/07/31 04:07:05;;;;;;;6.40;5.78;;;;;;;;;;5094916;28;20020;-83
2022/07/31 04:09:31;;;;;;;7.55;6.85;;;;;;;;;;5094461;28;20034;-86
2022/07/31 04:11:57;;;;;;;7.40;6.78;;;;;;;;;;5112787;28;20510;-84
2022/07/31 04:14:24;;;;;;;7.10;6.45;;;;;;;;;;5094296;28;20035;-83
2022/07/31 04:16:50;;;;;;;7.03;6.32;;;;;;;;;;5112786;28;20054;-86
2022/07/31 04:19:16;;;;;;;6.82;6.20;;;;;;;;;;5093633;28;20119;-85
2022/07/31 04:21:42;;;;;;;6.95;6.18;;;;;;;;;;5092119;28;20413;-87
2022/07/31 04:24:10;;;;;;;7.57;6.88;;;;;;;;;;5074070;28;20024;-83
2022/07/31 04:26:36;;;;;;;7.63;6.93;;;;;;;;;;5092090;28;20027;-81
2022/07/31 04:29:02;;;;;;;9.40;8.60;;;;;;;;;;5074162;28;20054;-84
2022/07/31 04:31:28;;;;;;;7.22;6.57;;;;;;;;;;5091957;28;20020;-83
2022/07/31 04:33:54;;;;;;;7.82;7.07;;;;;;;;;;5092385;28;20451;-80
2022/07/31 04:36:21;;;;;;;6.53;5.93;;;;;;;;;;5091966;28;20080;-82
2022/07/31 04:38:47;;;;;;;7.25;6.55;;;;;;;;;;5073931;28;20020;-83
2022/07/31 04:41:13;;;;;;;6.75;6.15;;;;;;;;;;5092186;28;20091;-80
2022/07/31 04:43:39;;;;;;;7.35;6.65;;;;;;;;;;5091873;28;20024;-80
2022/07/31 04:46:05;;;;;;;7.10;6.40;;;;;;;;;;5092180;28;20490;-83
2022/07/31 04:48:31;;;;;;;7.38;6.53;;;;;;;;;;5091980;28;20020;-80
2022/07/31 04:50:57;;;;;;;6.60;6.00;;;;;;;;;;5091953;28;20020;-82
2022/07/31 04:53:23;;;;;;;6.28;5.68;;;;;;;;;;5092127;28;20497;-84
2022/07/31 04:58:34;;;;;;;6.68;6.18;;;;;;;;;;5092043;28;20572;-85
2022/07/31 05:01:01;;;;;;;6.63;6.13;;;;;;;;;;5077382;28;20032;-83
2022/07/31 05:03:27;;;;;;;6.95;6.18;;;;;;;;;;5077102;28;20085;-84
2022/07/31 05:05:53;;;;;;;6.75;5.80;;;;;;;;;;5095223;28;20148;-87
2022/07/31 05:08:19;;;;;;;6.18;5.68;;;;;;;;;;5077248;28;20035;-84
2022/07/31 05:13:32;;;;;;;6.30;5.65;;;;;;;;;;5095177;28;20089;-82
2022/07/31 05:15:58;;;;;;;6.78;6.13;;;;;;;;;;5095357;28;20020;-84
2022/07/31 05:18:24;;;;;;;7.00;6.15;;;;;;;;;;5077004;28;20524;-82
2022/07/31 05:20:50;;;;;;;7.05;6.32;;;;;;;;;;5095257;28;20074;-80
2022/07/31 05:23:16;;;;;;;6.05;5.55;;;;;;;;;;5076762;28;20390;-82
2022/07/31 05:25:42;;;;;;;5.80;5.32;;;;;;;;;;5095137;28;20028;-82
2022/07/31 05:28:08;;;;;;;8.93;8.02;;;;;;;;;;5094960;28;20049;-80
2022/07/31 05:30:35;;;;;;;6.07;5.00;;;;;;;;;;5094969;28;20039;-83
2022/07/31 05:33:01;;;;;;;5.47;4.93;;;;;;;;;;5094943;28;20038;-83
2022/07/31 05:35:27;;;;;;;5.82;5.32;;;;;;;;;;5094811;28;20079;-83
2022/07/31 05:37:54;;;;;;;5.40;4.93;;;;;;;;;;5094851;28;20021;-79
2022/07/31 05:40:20;;;;;;;5.22;4.72;;;;;;;;;;5094472;28;20094;-80
2022/07/31 05:42:46;;;;;;;6.00;5.43;;;;;;;;;;5094712;28;20390;-79
2022/07/31 05:45:12;;;;;;;5.80;4.95;;;;;;;;;;5094296;28;20024;-79
2022/07/31 05:47:38;;;;;;;5.63;5.13;;;;;;;;;;5094438;28;20065;-82
2022/07/31 05:50:05;;;;;;;6.13;5.53;;;;;;;;;;5076582;28;20107;-83
2022/07/31 05:52:32;;;;;;;5.40;4.88;;;;;;;;;;5094378;28;20387;-88
2022/07/31 05:54:58;;;;;;;6.15;5.65;;;;;;;;;;5094763;28;20099;-85
2022/07/31 05:57:31;;;;;;;6.22;5.63;;;;;;;;;;5094341;28;20024;-86
2022/07/31 06:00:04;;;;;;;6.40;5.50;;;;;;;;;;5094460;28;20040;-82
2022/07/31 06:02:31;;;;;;;5.82;5.32;;;;;;;;;;5094087;28;20050;-81
2022/07/31 06:04:57;;;;;;;5.53;4.95;;;;;;;;;;5094308;28;20025;-84
2022/07/31 06:07:23;;;;;;;5.47;4.97;;;;;;;;;;5094182;28;20044;-81
2022/07/31 06:09:49;;;;;;;6.25;5.15;;;;;;;;;;5094612;28;20027;-83
2022/07/31 06:12:33;;;;;;;6.80;5.53;;;;;;;;;;5094923;28;20031;-84
2022/07/31 06:15:00;;;;;;;5.93;5.38;;;;;;;;;;5094287;28;20051;-84
2022/07/31 06:17:26;;;;;;;6.15;5.28;;;;;;;;;;5095016;28;20024;-83
2022/07/31 06:19:52;;;;;;;7.97;5.30;;;;;;;;;;5093449;28;20024;-80
2022/07/31 06:22:18;;;;;;;6.43;5.82;;;;;;;;;;5093769;28;20106;-80
2022/07/31 06:24:44;;;;;;;6.28;5.50;;;;;;;;;;5093866;28;20090;-80
2022/07/31 06:27:10;;;;;;;6.32;5.82;;;;;;;;;;5094688;28;20021;-79
2022/07/31 06:29:36;;;;;;;5.70;5.25;;;;;;;;;;5093470;28;20142;-82
2022/07/31 06:32:02;;;;;;;6.75;5.88;;;;;;;;;;5093548;28;20111;-79
2022/07/31 06:34:28;;;;;;;6.72;5.97;;;;;;;;;;5094753;28;20051;-79
2022/07/31 06:36:54;;;;;;;6.97;6.35;;;;;;;;;;5111117;28;20051;-82
2022/07/31 06:39:21;;;;;;;7.63;6.82;;;;;;;;;;5114927;28;20058;-78
2022/07/31 06:41:47;;;;;;;7.60;6.95;;;;;;;;;;5115378;28;20099;-81
2022/07/31 06:44:13;;;;;;;9.25;8.32;;;;;;;;;;5115004;28;20035;-83
2022/07/31 06:46:40;;;;;;;10.73;9.70;;;;;;;;;;5114963;28;20018;-81
2022/07/31 06:49:06;;;;;;;12.90;11.60;;;;;;;;;;5115020;28;20091;-83
2022/07/31 06:51:32;;;;;;;11.75;10.75;;;;;;;;;;5114876;28;20019;-81
2022/07/31 06:54:02;;;;;;;12.75;11.57;;;;;;;;;;5114970;28;20102;-82
2022/07/31 06:56:28;;;;;;;11.77;10.55;;;;;;;;;;5114860;28;20051;-77
2022/07/31 06:58:54;;;;;;;11.90;10.80;;;;;;;;;;5114749;28;20101;-83
2022/07/31 07:01:21;;;;;;;12.80;11.60;;;;;;;;;;5096406;28;20516;-82
2022/07/31 07:03:47;;;;;;;12.40;11.30;;;;;;;;;;5114532;28;20097;-83
2022/07/31 07:06:13;;;;;;;12.35;11.25;;;;;;;;;;5114527;28;20027;-80
2022/07/31 07:08:39;;;;;;;12.60;11.30;;;;;;;;;;5114414;28;20119;-80
2022/07/31 07:11:06;;;;;;;12.57;11.43;;;;;;;;;;5114623;28;20508;-83
2022/07/31 07:13:32;;;;;;;11.70;10.57;;;;;;;;;;5114403;28;20076;-79
2022/07/31 07:15:58;;;;;;;12.95;11.75;;;;;;;;;;5114511;28;20031;-82
2022/07/31 07:18:29;;;;;;;12.20;11.00;;;;;;;;;;5114382;28;20035;-78
2022/07/31 07:20:55;;;;;;;11.52;10.52;;;;;;;;;;5113977;28;20023;-79
2022/07/31 07:23:21;;;;;;;12.80;11.40;;;;;;;;;;5113614;28;20034;-80
2022/07/31 07:25:48;;;;;;;12.88;11.65;;;;;;;;;;5114228;28;20042;-81
2022/07/31 07:28:14;;;;;;;12.10;10.95;;;;;;;;;;5095924;28;20020;-80
2022/07/31 07:30:40;;;;;;;12.70;11.48;;;;;;;;;;5114069;28;20094;-79
2022/07/31 07:33:06;;;;;;;12.20;10.98;;;;;;;;;;5114135;28;20020;-79
2022/07/31 07:35:32;;;;;;;12.07;11.02;;;;;;;;;;5113829;28;20440;-83
2022/07/31 07:37:58;;;;;;;12.38;11.07;;;;;;;;;;5114209;28;20020;-83
2022/07/31 07:40:25;;;;;;;11.80;10.65;;;;;;;;;;5114003;28;20431;-78
2022/07/31 07:42:52;;;;;;;12.07;10.98;;;;;;;;;;5113945;28;20031;-82
2022/07/31 07:45:18;;;;;;;12.68;11.48;;;;;;;;;;5113902;28;20047;-79
2022/07/31 07:47:47;;;;;;;14.10;12.82;;;;;;;;;;5114068;28;20091;-88
2022/07/31 07:50:14;;;;;;;16.65;15.15;;;;;;;;;;5113733;28;20031;-83
2022/07/31 07:52:41;;;;;;;13.95;12.68;;;;;;;;;;5113862;28;20019;-84
2022/07/31 07:55:07;;;;;;;16.85;15.18;;;;;;;;;;5113771;28;20616;-82
2022/07/31 07:57:34;;;;;;;16.60;14.88;;;;;;;;;;5113774;28;20517;-83
2022/07/31 08:00:02;;;;;;;15.65;14.25;;;;;;;;;;5113417;28;20023;-82
2022/07/31 08:02:28;;;;;;;17.23;15.60;;;;;;;;;;5113757;28;20023;-81
2022/07/31 08:04:54;;;;;;;15.80;14.25;;;;;;;;;;5113778;28;20024;-79
2022/07/31 08:07:30;;;;;;;17.42;15.73;;;;;;;;;;5095620;28;20477;-81
2022/07/31 08:09:57;;;;;;;16.60;14.95;;;;;;;;;;5113822;28;20027;-82
2022/07/31 08:12:23;;;;;;;17.55;15.75;;;;;;;;;;5113700;28;20020;-79
2022/07/31 08:14:49;;;;;;;18.20;16.40;;;;;;;;;;5113720;28;20024;-80
2022/07/31 08:17:15;;;;;;;17.20;15.60;;;;;;;;;;5113674;28;20034;-83
2022/07/31 08:19:41;;;;;;;16.67;15.07;;;;;;;;;;5113727;28;20031;-82
2022/07/31 08:22:08;;;;;;;17.42;15.70;;;;;;;;;;5113789;28;20089;-86
2022/07/31 08:24:34;;;;;;;16.95;15.38;;;;;;;;;;5113609;28;20024;-82
2022/07/31 08:29:45;;;;;;;17.63;15.93;;;;;;;;;;5113666;28;20030;-87
2022/07/31 08:32:12;;;;;;;18.55;16.60;;;;;;;;;;5095346;28;20073;-80
2022/07/31 08:34:38;;;;;;;17.83;16.20;;;;;;;;;;5117236;28;20034;-83
2022/07/31 08:37:05;;;;;;;16.35;14.77;;;;;;;;;;5117301;28;20083;-82
2022/07/31 08:39:32;;;;;;;17.63;15.90;;;;;;;;;;5117409;28;20039;-84
2022/07/31 08:41:58;;;;;;;15.70;14.35;;;;;;;;;;5117487;28;20024;-82
2022/07/31 08:44:24;;;;;;;16.00;14.50;;;;;;;;;;5117408;28;20023;-83
2022/07/31 08:46:51;;;;;;;18.60;16.90;;;;;;;;;;5098801;28;20055;-87
2022/07/31 08:49:18;;;;;;;17.10;15.60;;;;;;;;;;5117211;28;20110;-83
2022/07/31 08:51:48;;;;;;;16.33;14.90;;;;;;;;;;5098802;28;20046;-81
2022/07/31 08:54:14;;;;;;;15.80;14.40;;;;;;;;;;5098705;28;20015;-84
2022/07/31 08:56:41;;;;;;;15.80;14.40;;;;;;;;;;5117127;28;20060;-85
2022/07/31 08:59:07;;;;;;;16.13;14.63;;;;;;;;;;5117036;28;20486;-83
2022/07/31 09:01:34;;;;;;;15.25;13.85;;;;;;;;;;5116927;28;20038;-85
2022/07/31 09:04:00;;;;;;;15.27;13.90;;;;;;;;;;5116822;28;20099;-85
2022/07/31 09:06:29;;;;;;;14.38;12.98;;;;;;;;;;5116786;28;20031;-84
2022/07/31 09:08:55;;;;;;;16.25;14.85;;;;;;;;;;5116761;28;20023;-82
2022/07/31 09:11:21;;;;;;;15.38;13.77;;;;;;;;;;5116808;28;20018;-80
2022/07/31 09:14:06;;;;;;;14.13;12.77;;;;;;;;;;5116747;28;20038;-82
2022/07/31 09:16:44;;;;;;;14.30;12.90;;;;;;;;;;5116468;28;20370;-79
2022/07/31 09:19:10;;;;;;;14.85;13.45;;;;;;;;;;5116724;28;20023;-83
2022/07/31 09:21:40;;;;;;;13.30;12.00;;;;;;;;;;5116416;28;20027;-86
2022/07/31 09:24:07;;;;;;;13.82;12.52;;;;;;;;;;5116368;28;20055;-84
2022/07/31 09:26:36;;;;;;;14.30;13.07;;;;;;;;;;5116619;28;20470;-80
2022/07/31 09:29:07;;;;;;;13.55;12.25;;;;;;;;;;5116402;28;20356;-84
2022/07/31 09:31:36;;;;;;;13.93;12.70;;;;;;;;;;5098107;28;20020;-84
2022/07/31 09:34:02;;;;;;;14.13;12.93;;;;;;;;;;5116279;28;20024;-82
2022/07/31 09:36:28;;;;;;;14.45;13.25;;;;;;;;;;5097855;28;20121;-84
2022/07/31 09:38:58;;;;;;;12.60;11.60;;;;;;;;;;5116392;28;20095;-81
2022/07/31 09:41:25;;;;;;;12.95;11.75;;;;;;;;;;5116221;28;20053;-86
2022/07/31 09:43:54;;;;;;;12.95;11.85;;;;;;;;;;5115911;28;20028;-81
2022/07/31 09:46:21;;;;;;;13.23;12.05;;;;;;;;;;5115378;28;20085;-82
2022/07/31 09:48:59;;;;;;;14.32;13.13;;;;;;;;;;5116028;28;20024;-87
2022/07/31 09:51:25;;;;;;;14.73;13.48;;;;;;;;;;5116019;28;20450;-80
2022/07/31 09:53:56;;;;;;;14.63;13.43;;;;;;;;;;5116013;28;20028;-77
2022/07/31 09:56:42;;;;;;;14.20;12.85;;;;;;;;;;5115922;28;20103;-86
2022/07/31 09:59:09;;;;;;;14.10;12.90;;;;;;;;;;5115685;28;20447;-83
2022/07/31 10:01:35;;;;;;;14.50;13.20;;;;;;;;;;5115754;28;20019;-85
2022/07/31 10:04:03;;;;;;;13.25;12.15;;;;;;;;;;5115560;28;20471;-85
2022/07/31 10:06:31;;;;;;;14.70;13.40;;;;;;;;;;5115695;28;20107;-85
2022/07/31 10:08:58;;;;;;;14.50;13.20;;;;;;;;;;5097196;28;20034;-83
2022/07/31 10:11:24;;;;;;;14.68;13.48;;;;;;;;;;5115385;28;20028;-85
2022/07/31 10:13:53;;;;;;;14.77;13.45;;;;;;;;;;5097076;28;20034;-82
2022/07/31 10:16:29;;;;;;;14.45;13.05;;;;;;;;;;5097033;28;20487;-85
2022/07/31 10:19:16;;;;;;;13.70;12.40;;;;;;;;;;5115343;28;20103;-82
2022/07/31 10:21:44;;;;;;;15.57;14.15;;;;;;;;;;5097084;28;20019;-82
2022/07/31 10:24:11;;;;;;;15.73;14.43;;;;;;;;;;5115186;28;20027;-82
2022/07/31 10:26:37;;;;;;;15.70;14.20;;;;;;;;;;5115215;28;20492;-84
2022/07/31 10:29:03;;;;;;;14.57;13.38;;;;;;;;;;5115137;28;20030;-82
2022/07/31 10:31:30;;;;;;;14.98;13.68;;;;;;;;;;5115186;28;20094;-82
2022/07/31 10:33:57;;;;;;;14.10;12.90;;;;;;;;;;5115214;28;20028;-86
2022/07/31 10:36:28;;;;;;;14.38;13.15;;;;;;;;;;5096720;28;20052;-83
2022/07/31 10:38:58;;;;;;;15.70;14.40;;;;;;;;;;5115064;28;20047;-83
2022/07/31 10:41:31;;;;;;;14.93;13.63;;;;;;;;;;5115013;28;20016;-83
2022/07/31 10:44:05;;;;;;;15.35;13.95;;;;;;;;;;5114868;28;20026;-81
2022/07/31 10:46:32;;;;;;;14.52;13.18;;;;;;;;;;5114707;28;20377;-84
2022/07/31 10:48:58;;;;;;;15.57;14.18;;;;;;;;;;5114771;28;20095;-83
2022/07/31 10:51:25;;;;;;;15.85;14.45;;;;;;;;;;5114968;28;20016;-83
2022/07/31 10:54:10;;;;;;;15.63;14.38;;;;;;;;;;5114721;28;20047;-85
2022/07/31 10:56:42;;;;;;;16.05;14.75;;;;;;;;;;5114552;28;20024;-81
2022/07/31 10:59:08;;;;;;;15.13;13.93;;;;;;;;;;5114558;28;20084;-81
2022/07/31 11:01:45;;;;;;;15.68;14.35;;;;;;;;;;5114659;28;20023;-84
2022/07/31 11:04:11;;;;;;;16.83;15.43;;;;;;;;;;5114505;28;20023;-83
2022/07/31 11:06:41;;;;;;;16.48;15.10;;;;;;;;;;5114851;28;20035;-81
2022/07/31 11:09:07;;;;;;;16.55;15.15;;;;;;;;;;5114484;28;20045;-80
2022/07/31 11:11:35;;;;;;;15.68;14.38;;;;;;;;;;5114420;28;20498;-82
2022/07/31 11:14:01;;;;;;;17.58;16.08;;;;;;;;;;5114383;28;20419;-84
2022/07/31 11:16:28;;;;;;;18.92;17.25;;;;;;;;;;5114046;28;20027;-82
2022/07/31 11:19:13;;;;;;;20.55;18.92;;;;;;;;;;5096138;28;20027;-87
2022/07/31 11:21:40;;;;;;;14.85;13.65;;;;;;;;;;5114227;28;20512;-85
2022/07/31 11:24:12;;;;;;;14.38;13.20;;;;;;;;;;5114223;28;20027;-81
2022/07/31 11:26:57;;;;;;;14.43;13.23;;;;;;;;;;5094688;28;20024;-81
2022/07/31 11:29:31;;;;;;;17.25;15.75;;;;;;;;;;5114192;28;20023;-85
2022/07/31 11:32:11;;;;;;;13.27;12.13;;;;;;;;;;5095812;28;20568;-82
2022/07/31 11:34:56;;;;;;;14.52;13.43;;;;;;;;;;5095757;28;20394;-83
2022/07/31 11:37:41;;;;;;;15.63;14.32;;;;;;;;;;5114198;28;20595;-84
2022/07/31 11:40:09;;;;;;;16.88;15.50;;;;;;;;;;5113985;28;20615;-85
2022/07/31 11:42:41;;;;;;;16.45;15.05;;;;;;;;;;5095742;28;20102;-82
2022/07/31 11:45:11;;;;;;;16.30;14.90;;;;;;;;;;5095450;28;20039;-83
2022/07/31 11:48:15;;;;;;;16.05;14.75;;;;;;;;;;5114022;28;20094;-85
2022/07/31 11:50:44;;;;;;;17.95;16.45;;;;;;;;;;5113424;28;20109;-85
2022/07/31 11:53:17;;;;;;;17.20;15.85;;;;;;;;;;5113870;28;20020;-84
2022/07/31 11:55:51;;;;;;;18.70;17.20;;;;;;;;;;5113953;28;20091;-86
2022/07/31 11:58:24;;;;;;;18.05;16.55;;;;;;;;;;5095565;28;20551;-88
2022/07/31 12:01:11;;;;;;;17.95;16.45;;;;;;;;;;5114139;28;20047;-84
2022/07/31 12:03:39;;;;;;;19.58;17.98;;;;;;;;;;5113508;28;20035;-86
2022/07/31 12:09:17;;;;;;;18.17;16.77;;;;;;;;;;5105887;28;20118;-80
2022/07/31 12:11:46;;;;;;;17.58;16.08;;;;;;;;;;5117906;28;20023;-85
2022/07/31 12:14:12;;;;;;;17.98;16.40;;;;;;;;;;5117928;28;20080;-87
2022/07/31 12:16:42;;;;;;;18.13;16.63;;;;;;;;;;5117840;28;20374;-88
2022/07/31 12:19:18;;;;;;;;;;;;;;;;;;;;;
2022/07/31 22:19:10;;;;;;;5.40;5.05;;;;;;;;;;5105220;28;20054;-79
2022/07/31 22:21:36;;;;;;;5.28;4.78;;;;;;;;;;5076900;28;20383;-79
2022/07/31 22:24:02;;;;;;;5.38;4.97;;;;;;;;;;5094776;28;20028;-79
2022/07/31 22:26:28;;;;;;;4.85;4.45;;;;;;;;;;5076828;28;20020;-80
2022/07/31 22:28:55;;;;;;;5.00;4.60;;;;;;;;;;5094969;28;20050;-79
2022/07/31 22:31:24;;;;;;;5.25;4.82;;;;;;;;;;5076721;28;20020;-78
2022/07/31 22:33:50;;;;;;;4.88;4.45;;;;;;;;;;5094704;28;20023;-79
2022/07/31 22:36:19;;;;;;;4.60;4.20;;;;;;;;;;5094782;28;20410;-79
2022/07/31 22:38:46;;;;;;;5.20;4.80;;;;;;;;;;5094863;28;20019;-79
2022/07/31 22:41:12;;;;;;;5.80;5.13;;;;;;;;;;5094704;28;20020;-80
2022/07/31 22:43:39;;;;;;;5.55;5.00;;;;;;;;;;5094599;28;20027;-80
2022/07/31 22:46:06;;;;;;;5.20;4.80;;;;;;;;;;5094451;28;20437;-79
2022/07/31 22:48:32;;;;;;;5.13;4.72;;;;;;;;;;5094545;28;20016;-79
2022/07/31 22:51:00;;;;;;;4.95;4.55;;;;;;;;;;5094532;28;20024;-80
2022/07/31 22:53:28;;;;;;;5.50;5.07;;;;;;;;;;5094363;28;20013;-80
2022/07/31 22:55:54;;;;;;;4.80;4.40;;;;;;;;;;5094503;28;20036;-80
2022/07/31 22:58:21;;;;;;;5.40;4.88;;;;;;;;;;5094408;28;20048;-79
2022/07/31 23:00:48;;;;;;;5.22;4.70;;;;;;;;;;5094394;28;20024;-79
2022/07/31 23:03:14;;;;;;;4.93;4.63;;;;;;;;;;5094258;28;20028;-79
2022/07/31 23:05:43;;;;;;;5.43;5.03;;;;;;;;;;5094213;28;20020;-79
2022/07/31 23:08:09;;;;;;;5.65;5.25;;;;;;;;;;5076020;28;20486;-79
2022/07/31 23:10:35;;;;;;;6.18;5.43;;;;;;;;;;5075997;28;20028;-79
2022/07/31 23:13:02;;;;;;;5.57;5.18;;;;;;;;;;5075949;28;20463;-79
2022/07/31 23:15:28;;;;;;;5.80;5.40;;;;;;;;;;5094170;28;20431;-79
2022/07/31 23:17:54;;;;;;;5.70;5.20;;;;;;;;;;5094058;28;20031;-79
2022/07/31 23:20:20;;;;;;;5.50;5.10;;;;;;;;;;5111542;28;20125;-80
2022/07/31 23:22:46;;;;;;;5.85;5.25;;;;;;;;;;5114278;28;20462;-79
2022/07/31 23:25:14;;;;;;;7.13;5.38;;;;;;;;;;5095745;28;20023;-80
2022/07/31 23:27:40;;;;;;;5.40;5.00;;;;;;;;;;5095959;28;20106;-79
2022/07/31 23:30:06;;;;;;;6.10;5.60;;;;;;;;;;5114242;28;20030;-79
2022/07/31 23:32:32;;;;;;;6.10;5.60;;;;;;;;;;5114283;28;20462;-79
2022/07/31 23:34:58;;;;;;;6.18;5.68;;;;;;;;;;5114152;28;20032;-80
2022/07/31 23:37:25;;;;;;;5.57;5.05;;;;;;;;;;5114100;28;20085;-79
2022/07/31 23:39:51;;;;;;;5.78;5.38;;;;;;;;;;5114029;28;20023;-79
2022/07/31 23:45:01;;;;;;;5.07;4.72;;;;;;;;;;5113927;28;20034;-80
2022/07/31 23:47:28;;;;;;;5.22;4.88;;;;;;;;;;5114116;28;20028;-80
2022/07/31 23:49:54;;;;;;;5.65;5.22;;;;;;;;;;5113976;28;20427;-79
2022/07/31 23:52:20;;;;;;;5.28;4.72;;;;;;;;;;5113968;28;20435;-80
2022/07/31 23:54:46;;;;;;;5.40;4.90;;;;;;;;;;5113990;28;20030;-79
2022/07/31 23:57:12;;;;;;;5.90;5.50;;;;;;;;;;5113740;28;20019;-79
2022/07/31 23:59:38;;;;;;;5.95;5.35;;;;;;;;;;5113934;28;20051;-80
